Time;durP1;ratioP1;P1;durP2;ratioP2;P2;SDS_P1;SDS_P2;PMS_P1;PMS_P2;Temp;Humidity;BMP_temperature;BMP_pressure;BME280_temperature;BME280_humidity;BME280_pressure;Samples;Min_cycle;Max_cycle;Signal;HPM_P1;HPM_P2
2023/12/24 00:01:17;;;;;;;1.70;1.60;;;;;;;;;;5054408;28;20238;-92
2023/12/24 00:03:44;;;;;;;1.77;1.67;;;;;;;;;;5055243;28;20275;-89
2023/12/24 00:06:11;;;;;;;2.97;1.63;;;;;;;;;;5054834;28;20291;-91
2023/12/24 00:08:39;;;;;;;1.97;1.83;;;;;;;;;;5054732;28;20598;-92
2023/12/24 00:11:06;;;;;;;2.00;1.90;;;;;;;;;;5054703;28;20222;-92
2023/12/24 00:13:34;;;;;;;2.07;1.87;;;;;;;;;;5054775;28;20267;-92
2023/12/24 00:16:01;;;;;;;1.87;1.77;;;;;;;;;;5054344;28;20337;-92
2023/12/24 00:18:28;;;;;;;1.57;1.40;;;;;;;;;;5055093;28;20225;-91
2023/12/24 00:20:55;;;;;;;2.00;1.80;;;;;;;;;;5054622;28;20238;-91
2023/12/24 00:23:22;;;;;;;2.53;1.40;;;;;;;;;;5054833;28;20206;-91
2023/12/24 00:25:50;;;;;;;1.57;1.57;;;;;;;;;;5055073;28;20283;-90
2023/12/24 00:28:17;;;;;;;1.70;1.60;;;;;;;;;;5054585;28;20637;-91
2023/12/24 00:30:45;;;;;;;1.57;1.57;;;;;;;;;;5053630;28;20264;-92
2023/12/24 00:33:12;;;;;;;1.40;1.40;;;;;;;;;;5054972;28;20210;-91
2023/12/24 00:35:39;;;;;;;1.87;1.70;;;;;;;;;;5054233;28;20287;-91
2023/12/24 00:38:06;;;;;;;1.50;1.50;;;;;;;;;;5054626;28;20226;-90
2023/12/24 00:40:33;;;;;;;1.47;1.40;;;;;;;;;;5053857;28;20646;-91
2023/12/24 00:43:02;;;;;;;5.97;1.97;;;;;;;;;;5035963;28;20229;-91
2023/12/24 00:45:29;;;;;;;1.67;1.57;;;;;;;;;;5034176;28;20314;-90
2023/12/24 00:47:56;;;;;;;1.63;1.50;;;;;;;;;;5034159;28;20266;-91
2023/12/24 00:50:23;;;;;;;2.30;1.87;;;;;;;;;;5034161;28;20241;-92
2023/12/24 00:52:50;;;;;;;3.23;1.60;;;;;;;;;;5034570;28;20206;-93
2023/12/24 00:55:17;;;;;;;1.67;1.67;;;;;;;;;;5033738;28;20700;-91
2023/12/24 00:57:44;;;;;;;1.90;1.50;;;;;;;;;;5034044;28;20202;-92
2023/12/24 01:00:13;;;;;;;3.53;1.30;;;;;;;;;;5050351;28;20252;-91
2023/12/24 01:02:40;;;;;;;1.47;1.40;;;;;;;;;;5054070;28;20261;-91
2023/12/24 01:05:08;;;;;;;1.30;1.30;;;;;;;;;;5054044;28;20201;-91
2023/12/24 01:07:35;;;;;;;1.40;1.40;;;;;;;;;;5054319;28;20297;-92
2023/12/24 01:10:02;;;;;;;1.93;1.60;;;;;;;;;;5054371;28;20206;-92
2023/12/24 01:12:29;;;;;;;1.40;1.40;;;;;;;;;;5052841;28;20229;-90
2023/12/24 01:14:56;;;;;;;1.57;1.50;;;;;;;;;;5042285;28;20198;-91
2023/12/24 01:17:25;;;;;;;1.50;1.40;;;;;;;;;;5053124;28;20272;-90
2023/12/24 01:19:52;;;;;;;1.60;1.50;;;;;;;;;;5054027;28;20230;-91
2023/12/24 01:22:19;;;;;;;1.40;1.40;;;;;;;;;;5052976;28;20283;-91
2023/12/24 01:24:46;;;;;;;1.40;1.40;;;;;;;;;;5054150;28;20210;-91
2023/12/24 01:27:13;;;;;;;1.43;1.37;;;;;;;;;;5053672;28;20233;-92
2023/12/24 01:29:40;;;;;;;1.20;1.20;;;;;;;;;;5053724;28;20288;-90
2023/12/24 01:32:07;;;;;;;1.30;1.30;;;;;;;;;;5053371;28;20256;-91
2023/12/24 01:34:35;;;;;;;1.23;1.23;;;;;;;;;;5053503;28;20202;-92
2023/12/24 01:37:02;;;;;;;1.40;1.33;;;;;;;;;;5051283;28;20356;-91
2023/12/24 01:39:30;;;;;;;2.97;1.80;;;;;;;;;;5053273;28;20721;-92
2023/12/24 01:41:57;;;;;;;1.50;1.40;;;;;;;;;;5052707;28;20234;-91
2023/12/24 01:44:24;;;;;;;1.83;1.50;;;;;;;;;;5054061;28;20623;-92
2023/12/24 01:46:51;;;;;;;2.70;1.40;;;;;;;;;;5047750;28;20238;-89
2023/12/24 01:49:18;;;;;;;2.43;1.60;;;;;;;;;;5034625;28;20296;-92
2023/12/24 01:51:46;;;;;;;1.50;1.50;;;;;;;;;;5033745;28;20234;-92
2023/12/24 01:54:14;;;;;;;1.67;1.60;;;;;;;;;;5034496;28;20214;-92
2023/12/24 01:56:41;;;;;;;1.43;1.43;;;;;;;;;;5033952;28;20242;-91
2023/12/24 01:59:09;;;;;;;1.63;1.50;;;;;;;;;;5034173;28;20234;-91
2023/12/24 02:01:37;;;;;;;2.10;1.73;;;;;;;;;;5052763;28;20265;-92
2023/12/24 02:04:05;;;;;;;1.70;1.60;;;;;;;;;;5054162;28;20701;-92
2023/12/24 02:06:33;;;;;;;2.33;1.50;;;;;;;;;;5053798;28;20711;-91
2023/12/24 02:09:01;;;;;;;4.17;1.93;;;;;;;;;;5039629;28;20588;-91
2023/12/24 02:11:28;;;;;;;3.93;1.30;;;;;;;;;;5033111;28;20256;-90
2023/12/24 02:13:56;;;;;;;1.67;1.30;;;;;;;;;;5032825;28;20213;-92
2023/12/24 02:16:23;;;;;;;2.20;1.90;;;;;;;;;;5033492;28;20235;-91
2023/12/24 02:18:50;;;;;;;1.37;1.30;;;;;;;;;;5034180;28;20230;-90
2023/12/24 02:21:19;;;;;;;1.10;1.10;;;;;;;;;;5033532;28;20230;-92
2023/12/24 02:23:46;;;;;;;1.87;1.77;;;;;;;;;;5033683;28;20264;-91
2023/12/24 02:26:17;;;;;;;1.20;1.20;;;;;;;;;;5033247;28;20312;-91
2023/12/24 02:28:46;;;;;;;1.50;1.47;;;;;;;;;;5039461;28;20555;-91
2023/12/24 02:31:15;;;;;;;1.37;1.33;;;;;;;;;;5053149;28;20234;-91
2023/12/24 02:33:42;;;;;;;1.73;1.63;;;;;;;;;;5053535;28;20206;-91
2023/12/24 02:36:10;;;;;;;2.40;1.37;;;;;;;;;;5053178;28;20233;-91
2023/12/24 02:38:39;;;;;;;1.93;1.63;;;;;;;;;;5053355;28;20257;-91
2023/12/24 02:41:06;;;;;;;2.30;1.43;;;;;;;;;;5053351;28;20241;-91
2023/12/24 02:43:34;;;;;;;1.30;1.30;;;;;;;;;;5052374;28;20237;-89
2023/12/24 02:46:01;;;;;;;1.43;1.30;;;;;;;;;;5052957;28;20237;-90
2023/12/24 02:48:28;;;;;;;1.40;1.30;;;;;;;;;;5053478;28;20237;-90
2023/12/24 02:50:55;;;;;;;1.23;1.23;;;;;;;;;;5053201;28;20363;-91
2023/12/24 02:53:22;;;;;;;2.00;1.50;;;;;;;;;;5044512;28;20213;-90
2023/12/24 02:55:51;;;;;;;1.40;1.30;;;;;;;;;;5036918;28;20285;-89
2023/12/24 02:58:18;;;;;;;2.10;1.40;;;;;;;;;;5037267;28;20658;-90
2023/12/24 03:00:45;;;;;;;1.40;1.37;;;;;;;;;;5036953;28;20239;-92
2023/12/24 03:03:12;;;;;;;1.30;1.30;;;;;;;;;;5036682;28;20230;-92
2023/12/24 03:05:39;;;;;;;1.27;1.27;;;;;;;;;;5037563;28;20229;-92
2023/12/24 03:08:06;;;;;;;1.90;1.67;;;;;;;;;;5037091;28;20222;-91
2023/12/24 03:10:33;;;;;;;1.30;1.30;;;;;;;;;;5036628;28;20277;-90
2023/12/24 03:13:01;;;;;;;1.53;1.47;;;;;;;;;;5036296;28;20217;-91
2023/12/24 03:15:28;;;;;;;1.43;1.33;;;;;;;;;;5036121;28;20231;-91
2023/12/24 03:17:55;;;;;;;3.73;1.30;;;;;;;;;;5051890;28;20803;-91
2023/12/24 03:20:22;;;;;;;1.40;1.40;;;;;;;;;;5038580;28;20242;-92
2023/12/24 03:22:49;;;;;;;1.60;1.50;;;;;;;;;;5037496;28;20231;-92
2023/12/24 03:25:16;;;;;;;1.43;1.40;;;;;;;;;;5037067;28;20218;-91
2023/12/24 03:27:43;;;;;;;1.20;1.20;;;;;;;;;;5036933;28;20213;-91
2023/12/24 03:30:12;;;;;;;1.27;1.27;;;;;;;;;;5036573;28;20218;-92
2023/12/24 03:32:39;;;;;;;1.57;1.47;;;;;;;;;;5037286;28;20210;-92
2023/12/24 03:35:07;;;;;;;1.40;1.30;;;;;;;;;;5036497;28;20210;-92
2023/12/24 03:37:34;;;;;;;1.30;1.30;;;;;;;;;;5053411;28;20661;-91
2023/12/24 03:40:01;;;;;;;1.57;1.47;;;;;;;;;;5056977;28;20295;-92
2023/12/24 03:42:28;;;;;;;1.27;1.27;;;;;;;;;;5056779;28;20234;-92
2023/12/24 03:44:55;;;;;;;1.13;1.13;;;;;;;;;;5047148;28;20261;-91
2023/12/24 03:47:23;;;;;;;1.00;1.00;;;;;;;;;;5036472;28;20292;-92
2023/12/24 03:49:50;;;;;;;2.97;1.33;;;;;;;;;;5036918;28;20231;-91
2023/12/24 03:52:17;;;;;;;1.40;1.40;;;;;;;;;;5035709;28;20230;-92
2023/12/24 03:54:44;;;;;;;1.13;1.13;;;;;;;;;;5036678;28;20206;-92
2023/12/24 03:57:14;;;;;;;2.33;1.57;;;;;;;;;;5035602;28;20226;-93
2023/12/24 03:59:41;;;;;;;1.70;1.60;;;;;;;;;;5054991;28;20279;-91
2023/12/24 04:02:08;;;;;;;1.40;1.40;;;;;;;;;;5055376;28;20283;-91
2023/12/24 04:04:36;;;;;;;1.70;1.60;;;;;;;;;;5056001;28;20206;-89
2023/12/24 04:07:03;;;;;;;1.57;1.57;;;;;;;;;;5055140;28;20241;-89
2023/12/24 04:09:31;;;;;;;1.47;1.37;;;;;;;;;;5055941;28;20284;-89
2023/12/24 04:11:58;;;;;;;1.50;1.50;;;;;;;;;;5054775;28;20233;-89
2023/12/24 04:14:25;;;;;;;1.70;1.60;;;;;;;;;;5055598;28;20210;-91
2023/12/24 04:16:52;;;;;;;1.60;1.50;;;;;;;;;;5056233;28;20230;-91
2023/12/24 04:19:19;;;;;;;1.77;1.67;;;;;;;;;;5056716;28;20233;-90
2023/12/24 04:21:48;;;;;;;1.57;1.57;;;;;;;;;;5055451;28;20234;-91
2023/12/24 04:24:15;;;;;;;1.60;1.60;;;;;;;;;;5056086;28;20206;-89
2023/12/24 04:26:42;;;;;;;2.83;2.63;;;;;;;;;;5055155;28;20222;-90
2023/12/24 04:29:09;;;;;;;1.50;1.50;;;;;;;;;;5055603;28;20226;-89
2023/12/24 04:31:39;;;;;;;2.00;1.80;;;;;;;;;;5044553;28;20650;-88
2023/12/24 04:34:06;;;;;;;1.83;1.70;;;;;;;;;;5049360;28;20641;-89
2023/12/24 04:36:33;;;;;;;1.50;1.50;;;;;;;;;;5058414;28;20230;-89
2023/12/24 04:39:02;;;;;;;1.93;1.73;;;;;;;;;;5055423;28;20280;-89
2023/12/24 04:41:29;;;;;;;1.37;1.37;;;;;;;;;;5054777;28;20265;-89
2023/12/24 04:43:56;;;;;;;1.40;1.40;;;;;;;;;;5055670;28;20229;-91
2023/12/24 04:46:23;;;;;;;1.43;1.40;;;;;;;;;;5035975;28;20230;-91
2023/12/24 04:48:50;;;;;;;1.30;1.30;;;;;;;;;;5035707;28;20631;-91
2023/12/24 04:51:17;;;;;;;1.43;1.43;;;;;;;;;;5035230;28;20284;-91
2023/12/24 04:53:44;;;;;;;1.40;1.40;;;;;;;;;;5049398;28;20206;-91
2023/12/24 04:56:21;;;;;;;1.87;1.77;;;;;;;;;;5054173;28;20234;-91
2023/12/24 04:58:48;;;;;;;2.27;1.50;;;;;;;;;;5047466;28;20309;-91
2023/12/24 05:01:16;;;;;;;1.63;1.30;;;;;;;;;;5034682;28;20237;-91
2023/12/24 05:03:43;;;;;;;1.53;1.47;;;;;;;;;;5035015;28;20317;-90
2023/12/24 05:06:10;;;;;;;1.63;1.50;;;;;;;;;;5035061;28;20234;-91
2023/12/24 05:08:39;;;;;;;1.40;1.30;;;;;;;;;;5034987;28;20227;-91
2023/12/24 05:11:06;;;;;;;1.40;1.40;;;;;;;;;;5034392;28;20230;-91
2023/12/24 05:13:35;;;;;;;1.30;1.30;;;;;;;;;;5034170;28;20206;-89
2023/12/24 05:16:02;;;;;;;1.43;1.43;;;;;;;;;;5033139;28;20649;-90
2023/12/24 05:18:29;;;;;;;1.20;1.20;;;;;;;;;;5034336;28;20701;-89
2023/12/24 05:20:56;;;;;;;3.40;1.40;;;;;;;;;;5033817;28;20317;-90
2023/12/24 05:23:23;;;;;;;1.90;1.60;;;;;;;;;;5033342;28;20679;-89
2023/12/24 05:25:50;;;;;;;1.60;1.50;;;;;;;;;;5033844;28;20296;-89
2023/12/24 05:28:17;;;;;;;1.30;1.30;;;;;;;;;;5053466;28;20226;-89
2023/12/24 05:30:46;;;;;;;1.27;1.27;;;;;;;;;;5053841;28;20234;-90
2023/12/24 05:33:13;;;;;;;1.40;1.40;;;;;;;;;;5054166;28;20247;-88
2023/12/24 05:35:40;;;;;;;1.40;1.30;;;;;;;;;;5053782;28;20238;-92
2023/12/24 05:38:07;;;;;;;1.47;1.40;;;;;;;;;;5053286;28;20230;-91
2023/12/24 05:40:34;;;;;;;1.77;1.40;;;;;;;;;;5053159;28;20775;-89
2023/12/24 05:43:01;;;;;;;1.20;1.20;;;;;;;;;;5033630;28;20235;-89
2023/12/24 05:45:28;;;;;;;1.40;1.30;;;;;;;;;;5037409;28;20641;-90
2023/12/24 05:47:56;;;;;;;1.20;1.20;;;;;;;;;;5033528;28;20207;-91
2023/12/24 05:50:24;;;;;;;1.40;1.40;;;;;;;;;;5033488;28;20230;-90
2023/12/24 05:52:51;;;;;;;1.60;1.50;;;;;;;;;;5035644;28;20756;-90
2023/12/24 05:55:18;;;;;;;1.47;1.40;;;;;;;;;;5053518;28;20202;-91
2023/12/24 05:57:45;;;;;;;1.50;1.40;;;;;;;;;;5053696;28;20786;-91
2023/12/24 06:00:12;;;;;;;1.37;1.27;;;;;;;;;;5054030;28;20213;-89
2023/12/24 06:02:39;;;;;;;1.20;1.20;;;;;;;;;;5054547;28;20236;-90
2023/12/24 06:05:08;;;;;;;1.30;1.30;;;;;;;;;;5053212;28;20218;-89
2023/12/24 06:07:35;;;;;;;1.33;1.30;;;;;;;;;;5053581;28;20771;-90
2023/12/24 06:10:02;;;;;;;1.30;1.30;;;;;;;;;;5052428;28;20229;-84
2023/12/24 06:12:29;;;;;;;1.40;1.30;;;;;;;;;;5050740;28;20205;-89
2023/12/24 06:14:58;;;;;;;1.83;1.23;;;;;;;;;;5033702;28;20194;-90
2023/12/24 06:17:25;;;;;;;1.33;1.33;;;;;;;;;;5032678;28;20234;-90
2023/12/24 06:19:52;;;;;;;1.20;1.20;;;;;;;;;;5033191;28;20237;-87
2023/12/24 06:22:20;;;;;;;1.37;1.37;;;;;;;;;;5032324;28;20234;-88
2023/12/24 06:24:47;;;;;;;1.40;1.40;;;;;;;;;;5033191;28;20237;-88
2023/12/24 06:27:14;;;;;;;1.37;1.37;;;;;;;;;;5032635;28;20709;-88
2023/12/24 06:29:41;;;;;;;1.47;1.47;;;;;;;;;;5032911;28;20292;-88
2023/12/24 06:32:09;;;;;;;1.37;1.37;;;;;;;;;;5032900;28;20245;-88
2023/12/24 06:34:36;;;;;;;1.23;1.23;;;;;;;;;;5050944;28;20202;-84
2023/12/24 06:37:03;;;;;;;1.90;1.50;;;;;;;;;;5051147;28;20237;-89
2023/12/24 06:39:31;;;;;;;1.60;1.50;;;;;;;;;;5032594;28;20230;-83
2023/12/24 06:41:58;;;;;;;2.70;1.70;;;;;;;;;;5031433;28;20234;-83
2023/12/24 06:44:25;;;;;;;1.20;1.20;;;;;;;;;;5031641;28;20237;-84
2023/12/24 06:46:53;;;;;;;1.23;1.23;;;;;;;;;;5031882;28;20288;-83
2023/12/24 06:49:20;;;;;;;1.40;1.40;;;;;;;;;;5031738;28;20741;-83
2023/12/24 06:51:47;;;;;;;1.53;1.53;;;;;;;;;;5031254;28;20234;-83
2023/12/24 06:54:14;;;;;;;1.40;1.40;;;;;;;;;;5031890;28;20206;-84
2023/12/24 06:56:42;;;;;;;1.43;1.43;;;;;;;;;;5031271;28;20643;-83
2023/12/24 06:59:09;;;;;;;1.77;1.67;;;;;;;;;;5031789;28;20226;-83
2023/12/24 07:01:36;;;;;;;1.33;1.33;;;;;;;;;;5031319;28;20231;-83
2023/12/24 07:04:04;;;;;;;2.83;1.70;;;;;;;;;;5031689;28;20230;-83
2023/12/24 07:06:31;;;;;;;1.33;1.33;;;;;;;;;;5051244;28;20229;-83
2023/12/24 07:08:57;;;;;;;1.43;1.40;;;;;;;;;;5051814;28;20233;-84
2023/12/24 07:11:25;;;;;;;1.50;1.50;;;;;;;;;;5051096;28;20303;-83
2023/12/24 07:13:53;;;;;;;1.43;1.33;;;;;;;;;;5051499;28;20210;-84
2023/12/24 07:16:20;;;;;;;1.63;1.60;;;;;;;;;;5051362;28;20261;-83
2023/12/24 07:18:47;;;;;;;1.37;1.37;;;;;;;;;;5051669;28;20226;-83
2023/12/24 07:21:14;;;;;;;1.40;1.40;;;;;;;;;;5051204;28;20603;-83
2023/12/24 07:23:42;;;;;;;1.27;1.27;;;;;;;;;;5051531;28;20283;-83
2023/12/24 07:26:09;;;;;;;1.20;1.20;;;;;;;;;;5051096;28;20316;-83
2023/12/24 07:28:37;;;;;;;1.57;1.53;;;;;;;;;;5051668;28;20221;-82
2023/12/24 07:31:05;;;;;;;1.13;1.13;;;;;;;;;;5051277;28;20233;-82
2023/12/24 07:33:33;;;;;;;1.37;1.37;;;;;;;;;;5051379;28;20217;-82
2023/12/24 07:36:00;;;;;;;1.40;1.40;;;;;;;;;;5051418;28;20238;-83
2023/12/24 07:38:29;;;;;;;1.70;1.70;;;;;;;;;;5051212;28;20252;-83
2023/12/24 07:40:56;;;;;;;1.90;1.80;;;;;;;;;;5053695;28;20230;-83
2023/12/24 07:43:23;;;;;;;1.40;1.40;;;;;;;;;;5054921;28;20226;-84
2023/12/24 07:45:50;;;;;;;1.40;1.40;;;;;;;;;;5054729;28;20243;-84
2023/12/24 07:48:19;;;;;;;1.30;1.30;;;;;;;;;;5055068;28;20304;-83
2023/12/24 07:50:46;;;;;;;1.37;1.37;;;;;;;;;;5054632;28;20238;-83
2023/12/24 07:53:13;;;;;;;1.50;1.40;;;;;;;;;;5054532;28;20214;-83
2023/12/24 07:55:41;;;;;;;1.60;1.50;;;;;;;;;;5054386;28;20288;-83
2023/12/24 07:58:08;;;;;;;1.20;1.20;;;;;;;;;;5054746;28;20252;-83
2023/12/24 08:00:35;;;;;;;1.40;1.40;;;;;;;;;;5054361;28;20318;-84
2023/12/24 08:03:02;;;;;;;1.20;1.20;;;;;;;;;;5054241;28;20217;-84
2023/12/24 08:05:31;;;;;;;1.40;1.40;;;;;;;;;;5054185;28;20230;-82
2023/12/24 08:07:58;;;;;;;1.73;1.63;;;;;;;;;;5054646;28;20202;-83
2023/12/24 08:10:25;;;;;;;1.50;1.50;;;;;;;;;;5054197;28;20626;-85
2023/12/24 08:12:52;;;;;;;1.47;1.43;;;;;;;;;;5054513;28;20299;-83
2023/12/24 08:15:21;;;;;;;1.80;1.70;;;;;;;;;;5053694;28;20742;-82
2023/12/24 08:17:49;;;;;;;1.20;1.20;;;;;;;;;;5054483;28;20228;-83
2023/12/24 08:20:20;;;;;;;1.70;1.60;;;;;;;;;;5053798;28;20284;-84
2023/12/24 08:22:49;;;;;;;1.23;1.23;;;;;;;;;;5054107;28;20179;-82
2023/12/24 08:25:16;;;;;;;2.23;1.40;;;;;;;;;;5053661;28;20234;-83
2023/12/24 08:27:43;;;;;;;1.40;1.40;;;;;;;;;;5053931;28;20320;-83
2023/12/24 08:30:11;;;;;;;1.40;1.40;;;;;;;;;;5053402;28;20682;-82
2023/12/24 08:32:38;;;;;;;1.50;1.50;;;;;;;;;;5054192;28;20264;-86
2023/12/24 08:35:05;;;;;;;1.40;1.40;;;;;;;;;;5053534;28;20206;-83
2023/12/24 08:37:32;;;;;;;1.80;1.70;;;;;;;;;;5054271;28;20206;-83
2023/12/24 08:40:01;;;;;;;1.80;1.70;;;;;;;;;;5054458;28;20574;-83
2023/12/24 08:42:28;;;;;;;1.60;1.50;;;;;;;;;;5053845;28;20237;-82
2023/12/24 08:44:56;;;;;;;1.80;1.70;;;;;;;;;;5053713;28;20226;-83
2023/12/24 08:47:22;;;;;;;1.37;1.37;;;;;;;;;;5053431;28;20238;-84
2023/12/24 08:49:49;;;;;;;1.33;1.33;;;;;;;;;;5053910;28;20226;-83
2023/12/24 08:52:16;;;;;;;1.40;1.40;;;;;;;;;;5052567;28;20283;-84
2023/12/24 08:54:43;;;;;;;1.40;1.40;;;;;;;;;;5053615;28;20232;-84
2023/12/24 08:57:12;;;;;;;1.20;1.20;;;;;;;;;;5053314;28;20238;-84
2023/12/24 08:59:39;;;;;;;1.63;1.53;;;;;;;;;;5053611;28;20291;-84
2023/12/24 09:02:06;;;;;;;1.40;1.40;;;;;;;;;;5053493;28;20644;-84
2023/12/24 09:04:33;;;;;;;1.47;1.37;;;;;;;;;;5053882;28;20221;-86
2023/12/24 09:07:00;;;;;;;1.23;1.23;;;;;;;;;;5055646;28;20238;-84
2023/12/24 09:09:27;;;;;;;1.43;1.43;;;;;;;;;;5054011;28;20225;-84
2023/12/24 09:11:54;;;;;;;1.30;1.30;;;;;;;;;;5055586;28;20707;-82
2023/12/24 09:14:22;;;;;;;1.23;1.23;;;;;;;;;;5054555;28;20674;-85
2023/12/24 09:16:49;;;;;;;1.43;1.43;;;;;;;;;;5054085;28;20291;-84
2023/12/24 09:19:16;;;;;;;1.57;1.47;;;;;;;;;;5053381;28;20230;-84
2023/12/24 09:21:43;;;;;;;1.20;1.20;;;;;;;;;;5052913;28;20610;-83
2023/12/24 09:24:10;;;;;;;1.10;1.10;;;;;;;;;;5053143;28;20221;-83
2023/12/24 09:26:37;;;;;;;1.30;1.30;;;;;;;;;;5052466;28;20748;-83
2023/12/24 09:29:05;;;;;;;1.30;1.30;;;;;;;;;;5053277;28;20230;-83
2023/12/24 09:31:33;;;;;;;1.43;1.43;;;;;;;;;;5052612;28;20283;-83
2023/12/24 09:34:00;;;;;;;1.20;1.20;;;;;;;;;;5052650;28;20256;-86
2023/12/24 09:36:27;;;;;;;1.30;1.30;;;;;;;;;;5052434;28;20241;-85
2023/12/24 09:38:54;;;;;;;1.20;1.20;;;;;;;;;;5054088;28;20233;-85
2023/12/24 09:41:21;;;;;;;1.40;1.30;;;;;;;;;;5053255;28;20590;-85
2023/12/24 09:43:48;;;;;;;1.20;1.20;;;;;;;;;;5053399;28;20206;-84
2023/12/24 09:46:15;;;;;;;1.33;1.33;;;;;;;;;;5052579;28;20229;-84
2023/12/24 09:48:43;;;;;;;1.73;1.23;;;;;;;;;;5052912;28;20238;-84
2023/12/24 09:51:11;;;;;;;1.63;1.10;;;;;;;;;;5052051;28;20688;-84
2023/12/24 09:53:38;;;;;;;1.30;1.30;;;;;;;;;;5052351;28;20713;-84
2023/12/24 09:56:05;;;;;;;1.30;1.30;;;;;;;;;;5054095;28;20233;-85
2023/12/24 09:58:33;;;;;;;1.67;1.57;;;;;;;;;;5050999;28;20236;-85
2023/12/24 10:01:01;;;;;;;1.47;1.37;;;;;;;;;;5050810;28;20249;-84
2023/12/24 10:03:28;;;;;;;1.10;1.10;;;;;;;;;;5051639;28;20198;-84
2023/12/24 10:06:09;;;;;;;1.60;1.50;;;;;;;;;;5050893;28;20268;-83
2023/12/24 10:08:36;;;;;;;1.47;1.47;;;;;;;;;;5051690;28;20596;-84
2023/12/24 10:11:13;;;;;;;1.13;1.13;;;;;;;;;;5050927;28;20234;-84
2023/12/24 10:13:41;;;;;;;1.50;1.40;;;;;;;;;;5051287;28;20602;-83
2023/12/24 10:16:08;;;;;;;1.30;1.30;;;;;;;;;;5050993;28;20287;-84
2023/12/24 10:18:36;;;;;;;1.37;1.37;;;;;;;;;;5051087;28;20218;-84
2023/12/24 10:21:05;;;;;;;1.30;1.30;;;;;;;;;;5051102;28;20232;-85
2023/12/24 10:23:32;;;;;;;1.50;1.50;;;;;;;;;;5050942;28;20893;-84
2023/12/24 10:26:03;;;;;;;1.50;1.50;;;;;;;;;;5050445;28;20626;-84
2023/12/24 10:28:30;;;;;;;1.40;1.40;;;;;;;;;;5050841;28;20650;-85
2023/12/24 10:31:06;;;;;;;1.47;1.47;;;;;;;;;;5050550;28;20229;-85
2023/12/24 10:33:33;;;;;;;1.13;1.13;;;;;;;;;;5050944;28;20226;-85
2023/12/24 10:36:00;;;;;;;1.00;1.00;;;;;;;;;;5050638;28;20242;-85
2023/12/24 10:38:29;;;;;;;1.40;1.40;;;;;;;;;;5050257;28;20903;-84
2023/12/24 10:40:56;;;;;;;1.00;1.00;;;;;;;;;;5050583;28;20234;-84
2023/12/24 10:43:23;;;;;;;1.30;1.30;;;;;;;;;;5050950;28;20202;-84
2023/12/24 10:45:50;;;;;;;1.20;1.20;;;;;;;;;;5050979;28;20271;-84
2023/12/24 10:48:17;;;;;;;2.47;1.13;;;;;;;;;;5034653;28;20217;-84
2023/12/24 10:50:44;;;;;;;1.37;1.37;;;;;;;;;;5050370;28;20707;-84
2023/12/24 10:53:13;;;;;;;1.20;1.20;;;;;;;;;;5050496;28;20210;-85
2023/12/24 10:55:43;;;;;;;1.20;1.20;;;;;;;;;;5050727;28;20234;-84
2023/12/24 10:58:13;;;;;;;1.20;1.20;;;;;;;;;;5051452;28;20628;-86
2023/12/24 11:00:40;;;;;;;1.30;1.30;;;;;;;;;;5045357;28;20233;-85
2023/12/24 11:03:07;;;;;;;1.30;1.30;;;;;;;;;;5050473;28;20210;-85
2023/12/24 11:05:48;;;;;;;1.57;1.50;;;;;;;;;;5050588;28;20234;-85
2023/12/24 11:08:29;;;;;;;1.10;1.10;;;;;;;;;;5051216;28;20325;-86
2023/12/24 11:10:57;;;;;;;1.17;1.10;;;;;;;;;;5039445;28;20305;-85
2023/12/24 11:13:43;;;;;;;1.03;1.03;;;;;;;;;;5050771;28;20696;-85
2023/12/24 11:16:10;;;;;;;1.20;1.20;;;;;;;;;;5053722;28;20757;-86
2023/12/24 11:18:41;;;;;;;1.10;1.10;;;;;;;;;;5054418;28;20237;-85
2023/12/24 11:21:08;;;;;;;1.00;1.00;;;;;;;;;;5054552;28;20310;-85
2023/12/24 11:23:36;;;;;;;1.10;1.10;;;;;;;;;;5054618;28;20206;-85
2023/12/24 11:26:24;;;;;;;1.20;1.20;;;;;;;;;;5054405;28;20431;-85
2023/12/24 11:28:51;;;;;;;1.00;1.00;;;;;;;;;;5054201;28;20218;-85
2023/12/24 11:31:24;;;;;;;1.10;1.10;;;;;;;;;;5053921;28;20564;-85
2023/12/24 11:33:51;;;;;;;2.20;1.30;;;;;;;;;;5055221;28;20201;-86
2023/12/24 11:36:22;;;;;;;1.10;1.10;;;;;;;;;;5053985;28;20225;-87
2023/12/24 11:38:49;;;;;;;1.00;1.00;;;;;;;;;;5055079;28;20226;-87
2023/12/24 11:41:18;;;;;;;1.50;1.40;;;;;;;;;;5056548;28;20276;-85
2023/12/24 11:43:52;;;;;;;1.00;1.00;;;;;;;;;;5052112;28;20312;-84
2023/12/24 11:46:19;;;;;;;1.20;1.20;;;;;;;;;;5053999;28;20230;-84
2023/12/24 11:48:46;;;;;;;1.17;1.17;;;;;;;;;;5050488;28;20638;-84
2023/12/24 11:51:13;;;;;;;1.20;1.20;;;;;;;;;;5053381;28;20241;-85
2023/12/24 11:53:41;;;;;;;1.33;1.23;;;;;;;;;;5054464;28;20252;-85
2023/12/24 11:56:10;;;;;;;1.20;1.20;;;;;;;;;;5056466;28;20237;-85
2023/12/24 11:58:39;;;;;;;1.10;1.10;;;;;;;;;;5056483;28;20771;-85
2023/12/24 12:01:06;;;;;;;1.20;1.20;;;;;;;;;;5057182;28;20234;-87
2023/12/24 12:03:35;;;;;;;1.07;1.07;;;;;;;;;;5060305;28;20242;-85
2023/12/24 12:06:02;;;;;;;1.20;1.20;;;;;;;;;;5055160;28;20241;-86
2023/12/24 12:08:30;;;;;;;1.00;1.00;;;;;;;;;;5054916;28;20270;-86
2023/12/24 12:10:57;;;;;;;1.10;1.10;;;;;;;;;;5053411;28;20982;-86
2023/12/24 12:13:24;;;;;;;1.10;1.10;;;;;;;;;;5053661;28;20210;-86
2023/12/24 12:15:53;;;;;;;1.20;1.10;;;;;;;;;;5053162;28;20237;-87
2023/12/24 12:18:20;;;;;;;0.80;0.80;;;;;;;;;;5054789;28;20221;-85
2023/12/24 12:20:47;;;;;;;1.10;1.10;;;;;;;;;;5053788;28;20241;-85
2023/12/24 12:23:16;;;;;;;1.30;1.30;;;;;;;;;;5054210;28;20210;-85
2023/12/24 12:25:43;;;;;;;1.10;1.10;;;;;;;;;;5052012;28;20233;-84
2023/12/24 12:28:10;;;;;;;1.07;1.07;;;;;;;;;;5054483;28;20274;-84
2023/12/24 12:30:37;;;;;;;1.17;1.17;;;;;;;;;;5051262;28;20324;-85
2023/12/24 12:33:07;;;;;;;1.10;1.10;;;;;;;;;;5050835;28;20214;-88
2023/12/24 12:35:34;;;;;;;1.10;1.10;;;;;;;;;;5051461;28;20237;-85
2023/12/24 12:38:01;;;;;;;1.10;1.10;;;;;;;;;;5051746;28;20230;-85
2023/12/24 12:40:28;;;;;;;1.30;1.30;;;;;;;;;;5053000;28;20241;-85
2023/12/24 12:42:55;;;;;;;0.90;0.90;;;;;;;;;;5052945;28;20293;-84
2023/12/24 12:45:22;;;;;;;1.20;1.20;;;;;;;;;;5052799;28;20360;-85
2023/12/24 12:47:50;;;;;;;1.40;1.30;;;;;;;;;;5053668;28;20210;-86
2023/12/24 12:50:18;;;;;;;1.10;1.07;;;;;;;;;;5052995;28;20206;-86
2023/12/24 12:52:49;;;;;;;1.00;1.00;;;;;;;;;;5052849;28;20286;-85
2023/12/24 12:55:16;;;;;;;1.00;1.00;;;;;;;;;;5053091;28;20729;-86
2023/12/24 12:57:44;;;;;;;1.03;1.03;;;;;;;;;;5053857;28;20279;-85
2023/12/24 13:00:13;;;;;;;1.00;1.00;;;;;;;;;;5053735;28;20222;-85
2023/12/24 13:02:40;;;;;;;1.00;1.00;;;;;;;;;;5053062;28;20255;-87
2023/12/24 13:05:24;;;;;;;1.00;1.00;;;;;;;;;;5052670;28;20217;-86
2023/12/24 13:07:52;;;;;;;1.07;1.07;;;;;;;;;;5053223;28;20206;-84
2023/12/24 13:10:29;;;;;;;1.27;1.20;;;;;;;;;;5052451;28;20206;-84
2023/12/24 13:13:07;;;;;;;0.90;0.90;;;;;;;;;;5052273;28;20584;-84
2023/12/24 13:15:34;;;;;;;1.00;1.00;;;;;;;;;;5052880;28;20260;-85
2023/12/24 13:18:14;;;;;;;0.90;0.90;;;;;;;;;;5052611;28;20575;-85
2023/12/24 13:20:41;;;;;;;1.10;1.10;;;;;;;;;;5052300;28;20328;-86
2023/12/24 13:23:10;;;;;;;0.97;0.97;;;;;;;;;;5052129;28;20206;-86
2023/12/24 13:25:40;;;;;;;1.00;1.00;;;;;;;;;;5052306;28;20238;-86
2023/12/24 13:28:07;;;;;;;1.03;1.03;;;;;;;;;;5052750;28;20229;-87
2023/12/24 13:30:34;;;;;;;1.30;1.20;;;;;;;;;;5052279;28;20241;-86
2023/12/24 13:33:01;;;;;;;1.00;1.00;;;;;;;;;;5052285;28;20715;-86
2023/12/24 13:35:28;;;;;;;1.23;1.13;;;;;;;;;;5052968;28;20320;-86
2023/12/24 13:37:55;;;;;;;1.10;1.10;;;;;;;;;;5053004;28;20202;-86
2023/12/24 13:40:24;;;;;;;1.00;1.00;;;;;;;;;;5053662;28;20241;-86
2023/12/24 13:42:51;;;;;;;1.30;1.30;;;;;;;;;;5052491;28;20273;-86
2023/12/24 13:45:18;;;;;;;1.00;1.00;;;;;;;;;;5052471;28;20280;-84
2023/12/24 13:47:45;;;;;;;1.20;1.10;;;;;;;;;;5060337;28;20206;-84
2023/12/24 13:50:12;;;;;;;1.03;1.03;;;;;;;;;;5058632;28;20217;-85
2023/12/24 13:52:39;;;;;;;0.90;0.90;;;;;;;;;;5058323;28;20206;-86
2023/12/24 13:55:07;;;;;;;1.00;1.00;;;;;;;;;;5051679;28;20205;-86
2023/12/24 13:57:36;;;;;;;1.00;1.00;;;;;;;;;;5052283;28;20202;-86
2023/12/24 14:00:04;;;;;;;1.40;1.30;;;;;;;;;;5052322;28;20724;-82
2023/12/24 14:02:31;;;;;;;1.20;1.20;;;;;;;;;;5053260;28;20205;-86
2023/12/24 14:04:58;;;;;;;1.10;1.10;;;;;;;;;;5053174;28;20209;-84
2023/12/24 14:07:25;;;;;;;1.10;1.10;;;;;;;;;;5051618;28;20316;-84
2023/12/24 14:09:52;;;;;;;1.10;1.00;;;;;;;;;;5051987;28;20633;-85
2023/12/24 14:12:19;;;;;;;1.23;1.10;;;;;;;;;;5050854;28;20230;-84
2023/12/24 14:14:47;;;;;;;1.10;1.10;;;;;;;;;;5051555;28;20275;-84
2023/12/24 14:17:14;;;;;;;1.33;1.33;;;;;;;;;;5051394;28;20233;-84
2023/12/24 14:19:41;;;;;;;1.03;1.03;;;;;;;;;;5050942;28;20226;-83
2023/12/24 14:22:11;;;;;;;1.10;1.10;;;;;;;;;;5050429;28;20643;-83
2023/12/24 14:24:38;;;;;;;1.20;1.20;;;;;;;;;;5051249;28;20641;-82
2023/12/24 14:27:06;;;;;;;1.17;1.17;;;;;;;;;;5050747;28;20368;-83
2023/12/24 14:29:33;;;;;;;1.00;1.00;;;;;;;;;;5051404;28;20629;-83
2023/12/24 14:32:01;;;;;;;1.60;1.50;;;;;;;;;;5049840;28;20720;-83
2023/12/24 14:34:28;;;;;;;1.20;1.20;;;;;;;;;;5050353;28;20233;-82
2023/12/24 14:36:55;;;;;;;1.37;1.27;;;;;;;;;;5050621;28;20291;-82
2023/12/24 14:39:22;;;;;;;1.30;1.20;;;;;;;;;;5051102;28;20230;-84
2023/12/24 14:41:49;;;;;;;1.20;1.20;;;;;;;;;;5050254;28;20233;-84
2023/12/24 14:44:16;;;;;;;1.03;1.03;;;;;;;;;;5049960;28;20239;-83
2023/12/24 14:46:45;;;;;;;1.47;1.43;;;;;;;;;;5050372;28;20264;-84